sensor_id;sensor_type;location;lat;lon;timestamp;temperature;humidity
66373;SHT30;53168;51.146;17.120;2023-06-04T00:01:20;10.07;51.28
66373;SHT30;53168;51.146;17.120;2023-06-04T00:03:50;10.04;51.39
66373;SHT30;53168;51.146;17.120;2023-06-04T00:06:20;10.01;51.71
66373;SHT30;53168;51.146;17.120;2023-06-04T00:08:49;9.98;51.94
66373;SHT30;53168;51.146;17.120;2023-06-04T00:11:19;9.95;51.92
66373;SHT30;53168;51.146;17.120;2023-06-04T00:13:49;9.92;51.87
66373;SHT30;53168;51.146;17.120;2023-06-04T00:16:19;9.89;51.89
66373;SHT30;53168;51.146;17.120;2023-06-04T00:18:49;9.86;52.10
66373;SHT30;53168;51.146;17.120;2023-06-04T00:21:19;9.82;52.11
66373;SHT30;53168;51.146;17.120;2023-06-04T00:23:50;9.78;52.08
66373;SHT30;53168;51.146;17.120;2023-06-04T00:26:20;9.73;52.11
66373;SHT30;53168;51.146;17.120;2023-06-04T00:28:50;9.70;52.14
66373;SHT30;53168;51.146;17.120;2023-06-04T00:31:23;9.65;52.27
66373;SHT30;53168;51.146;17.120;2023-06-04T00:33:53;9.62;52.37
66373;SHT30;53168;51.146;17.120;2023-06-04T00:36:25;9.57;52.41
66373;SHT30;53168;51.146;17.120;2023-06-04T00:38:55;9.54;52.49
66373;SHT30;53168;51.146;17.120;2023-06-04T00:41:24;9.49;52.37
66373;SHT30;53168;51.146;17.120;2023-06-04T00:43:54;9.46;52.68
66373;SHT30;53168;51.146;17.120;2023-06-04T00:46:25;9.44;53.17
66373;SHT30;53168;51.146;17.120;2023-06-04T00:48:56;9.47;53.24
66373;SHT30;53168;51.146;17.120;2023-06-04T00:51:36;9.47;53.49
66373;SHT30;53168;51.146;17.120;2023-06-04T00:54:08;9.48;53.18
66373;SHT30;53168;51.146;17.120;2023-06-04T00:56:39;9.46;53.56
66373;SHT30;53168;51.146;17.120;2023-06-04T00:59:11;9.44;53.58
66373;SHT30;53168;51.146;17.120;2023-06-04T01:01:48;9.42;53.73
66373;SHT30;53168;51.146;17.120;2023-06-04T01:04:29;9.39;53.83
66373;SHT30;53168;51.146;17.120;2023-06-04T01:07:04;9.37;54.10
66373;SHT30;53168;51.146;17.120;2023-06-04T01:09:38;9.34;54.52
66373;SHT30;53168;51.146;17.120;2023-06-04T01:12:11;9.31;54.33
66373;SHT30;53168;51.146;17.120;2023-06-04T01:14:41;9.27;54.30
66373;SHT30;53168;51.146;17.120;2023-06-04T01:17:17;9.23;54.30
66373;SHT30;53168;51.146;17.120;2023-06-04T01:20:07;9.19;54.36
66373;SHT30;53168;51.146;17.120;2023-06-04T01:26:36;9.10;54.95
66373;SHT30;53168;51.146;17.120;2023-06-04T01:29:06;9.07;55.20
66373;SHT30;53168;51.146;17.120;2023-06-04T01:31:37;9.05;55.26
66373;SHT30;53168;51.146;17.120;2023-06-04T01:34:10;9.03;55.67
66373;SHT30;53168;51.146;17.120;2023-06-04T01:36:40;9.05;55.54
66373;SHT30;53168;51.146;17.120;2023-06-04T01:39:10;9.04;55.59
66373;SHT30;53168;51.146;17.120;2023-06-04T01:41:40;9.03;55.78
66373;SHT30;53168;51.146;17.120;2023-06-04T01:44:10;9.03;56.03
66373;SHT30;53168;51.146;17.120;2023-06-04T01:46:40;9.03;55.94
66373;SHT30;53168;51.146;17.120;2023-06-04T01:49:10;9.02;55.95
66373;SHT30;53168;51.146;17.120;2023-06-04T01:51:40;9.00;56.39
66373;SHT30;53168;51.146;17.120;2023-06-04T01:54:12;8.99;56.34
66373;SHT30;53168;51.146;17.120;2023-06-04T01:56:43;8.95;56.38
66373;SHT30;53168;51.146;17.120;2023-06-04T01:59:13;8.89;56.35
66373;SHT30;53168;51.146;17.120;2023-06-04T02:01:44;8.82;56.35
66373;SHT30;53168;51.146;17.120;2023-06-04T02:04:15;8.77;56.55
66373;SHT30;53168;51.146;17.120;2023-06-04T02:06:44;8.70;56.84
66373;SHT30;53168;51.146;17.120;2023-06-04T02:09:14;8.69;56.97
66373;SHT30;53168;51.146;17.120;2023-06-04T02:11:44;8.68;57.10
66373;SHT30;53168;51.146;17.120;2023-06-04T02:14:15;8.66;57.12
66373;SHT30;53168;51.146;17.120;2023-06-04T02:16:45;8.63;57.31
66373;SHT30;53168;51.146;17.120;2023-06-04T02:19:18;8.60;57.63
66373;SHT30;53168;51.146;17.120;2023-06-04T02:21:48;8.56;57.75
66373;SHT30;53168;51.146;17.120;2023-06-04T02:24:18;8.54;57.92
66373;SHT30;53168;51.146;17.120;2023-06-04T02:26:50;8.50;58.00
66373;SHT30;53168;51.146;17.120;2023-06-04T02:29:20;8.46;57.99
66373;SHT30;53168;51.146;17.120;2023-06-04T02:31:50;8.42;58.16
66373;SHT30;53168;51.146;17.120;2023-06-04T02:34:21;8.41;58.28
66373;SHT30;53168;51.146;17.120;2023-06-04T02:36:53;8.41;58.33
66373;SHT30;53168;51.146;17.120;2023-06-04T02:39:26;8.43;58.37
66373;SHT30;53168;51.146;17.120;2023-06-04T02:41:56;8.41;58.27
66373;SHT30;53168;51.146;17.120;2023-06-04T02:44:27;8.42;58.35
66373;SHT30;53168;51.146;17.120;2023-06-04T02:46:58;8.42;58.40
66373;SHT30;53168;51.146;17.120;2023-06-04T02:49:28;8.40;58.41
66373;SHT30;53168;51.146;17.120;2023-06-04T02:52:00;8.39;58.38
66373;SHT30;53168;51.146;17.120;2023-06-04T02:54:30;8.37;58.52
66373;SHT30;53168;51.146;17.120;2023-06-04T02:57:00;8.38;58.70
66373;SHT30;53168;51.146;17.120;2023-06-04T03:00:54;8.40;58.73
66373;SHT30;53168;51.146;17.120;2023-06-04T03:04:01;8.45;58.79
66373;SHT30;53168;51.146;17.120;2023-06-04T03:06:50;8.49;58.94
66373;SHT30;53168;51.146;17.120;2023-06-04T03:09:37;8.52;59.08
66373;SHT30;53168;51.146;17.120;2023-06-04T03:20:12;8.56;59.17
66373;SHT30;53168;51.146;17.120;2023-06-04T03:22:44;8.58;59.19
66373;SHT30;53168;51.146;17.120;2023-06-04T03:28:22;8.66;59.41
66373;SHT30;53168;51.146;17.120;2023-06-04T03:30:51;8.69;59.20
66373;SHT30;53168;51.146;17.120;2023-06-04T03:33:23;8.71;59.23
66373;SHT30;53168;51.146;17.120;2023-06-04T03:35:58;8.73;59.28
66373;SHT30;53168;51.146;17.120;2023-06-04T03:38:28;8.75;59.34
66373;SHT30;53168;51.146;17.120;2023-06-04T03:40:58;8.78;59.33
66373;SHT30;53168;51.146;17.120;2023-06-04T03:43:28;8.82;59.37
66373;SHT30;53168;51.146;17.120;2023-06-04T03:46:01;8.86;59.34
66373;SHT30;53168;51.146;17.120;2023-06-04T03:48:31;8.92;59.33
66373;SHT30;53168;51.146;17.120;2023-06-04T03:51:01;9.01;59.23
66373;SHT30;53168;51.146;17.120;2023-06-04T03:53:33;9.09;59.27
66373;SHT30;53168;51.146;17.120;2023-06-04T03:56:04;9.17;59.13
66373;SHT30;53168;51.146;17.120;2023-06-04T03:58:36;9.24;59.04
66373;SHT30;53168;51.146;17.120;2023-06-04T04:01:15;9.31;59.06
66373;SHT30;53168;51.146;17.120;2023-06-04T04:03:45;9.41;58.93
66373;SHT30;53168;51.146;17.120;2023-06-04T04:06:18;9.48;58.90
66373;SHT30;53168;51.146;17.120;2023-06-04T04:08:50;9.55;58.84
66373;SHT30;53168;51.146;17.120;2023-06-04T04:11:24;9.64;58.72
66373;SHT30;53168;51.146;17.120;2023-06-04T04:13:56;9.73;58.64
66373;SHT30;53168;51.146;17.120;2023-06-04T04:16:46;9.80;58.76
66373;SHT30;53168;51.146;17.120;2023-06-04T04:19:21;9.89;58.66
66373;SHT30;53168;51.146;17.120;2023-06-04T04:21:52;9.96;58.55
66373;SHT30;53168;51.146;17.120;2023-06-04T04:24:27;10.04;58.57
66373;SHT30;53168;51.146;17.120;2023-06-04T04:27:01;10.11;58.53
66373;SHT30;53168;51.146;17.120;2023-06-04T04:29:33;10.19;58.54
66373;SHT30;53168;51.146;17.120;2023-06-04T04:32:05;10.26;58.49
66373;SHT30;53168;51.146;17.120;2023-06-04T04:35:00;10.36;58.35
66373;SHT30;53168;51.146;17.120;2023-06-04T04:40:32;10.55;58.29
66373;SHT30;53168;51.146;17.120;2023-06-04T04:43:17;10.64;58.25
66373;SHT30;53168;51.146;17.120;2023-06-04T04:46:06;10.76;58.14
66373;SHT30;53168;51.146;17.120;2023-06-04T04:48:55;10.88;58.04
66373;SHT30;53168;51.146;17.120;2023-06-04T04:51:27;11.00;58.00
66373;SHT30;53168;51.146;17.120;2023-06-04T04:54:01;11.11;57.94
66373;SHT30;53168;51.146;17.120;2023-06-04T04:56:44;11.22;57.88
66373;SHT30;53168;51.146;17.120;2023-06-04T04:59:14;11.33;57.75
66373;SHT30;53168;51.146;17.120;2023-06-04T05:01:44;11.44;57.63
66373;SHT30;53168;51.146;17.120;2023-06-04T05:04:14;11.53;57.58
66373;SHT30;53168;51.146;17.120;2023-06-04T05:06:44;11.64;57.48
66373;SHT30;53168;51.146;17.120;2023-06-04T05:12:38;11.87;57.14
66373;SHT30;53168;51.146;17.120;2023-06-04T05:15:19;11.99;57.10
66373;SHT30;53168;51.146;17.120;2023-06-04T05:17:49;12.11;57.00
66373;SHT30;53168;51.146;17.120;2023-06-04T05:20:20;12.22;56.97
66373;SHT30;53168;51.146;17.120;2023-06-04T05:23:10;12.30;56.80
66373;SHT30;53168;51.146;17.120;2023-06-04T05:25:40;12.41;56.67
66373;SHT30;53168;51.146;17.120;2023-06-04T05:28:39;12.51;56.58
66373;SHT30;53168;51.146;17.120;2023-06-04T05:31:12;12.63;56.26
66373;SHT30;53168;51.146;17.120;2023-06-04T05:33:45;12.74;56.22
66373;SHT30;53168;51.146;17.120;2023-06-04T05:36:22;12.85;56.16
66373;SHT30;53168;51.146;17.120;2023-06-04T05:38:56;12.96;56.03
66373;SHT30;53168;51.146;17.120;2023-06-04T05:41:29;13.05;56.01
66373;SHT30;53168;51.146;17.120;2023-06-04T05:43:59;13.14;55.45
66373;SHT30;53168;51.146;17.120;2023-06-04T05:46:29;13.25;55.26
66373;SHT30;53168;51.146;17.120;2023-06-04T05:48:59;13.41;55.19
66373;SHT30;53168;51.146;17.120;2023-06-04T05:51:29;13.53;54.71
66373;SHT30;53168;51.146;17.120;2023-06-04T05:53:59;13.61;54.38
66373;SHT30;53168;51.146;17.120;2023-06-04T05:56:30;13.71;54.33
66373;SHT30;53168;51.146;17.120;2023-06-04T05:59:00;13.81;54.15
66373;SHT30;53168;51.146;17.120;2023-06-04T06:01:29;13.92;53.89
66373;SHT30;53168;51.146;17.120;2023-06-04T06:03:59;14.00;53.69
66373;SHT30;53168;51.146;17.120;2023-06-04T06:06:30;14.07;53.51
66373;SHT30;53168;51.146;17.120;2023-06-04T06:09:00;14.21;53.76
66373;SHT30;53168;51.146;17.120;2023-06-04T06:11:31;14.34;53.62
66373;SHT30;53168;51.146;17.120;2023-06-04T06:14:01;14.43;53.42
66373;SHT30;53168;51.146;17.120;2023-06-04T06:16:30;14.54;53.36
66373;SHT30;53168;51.146;17.120;2023-06-04T06:19:01;14.65;53.21
66373;SHT30;53168;51.146;17.120;2023-06-04T06:21:31;14.74;53.26
66373;SHT30;53168;51.146;17.120;2023-06-04T06:24:02;14.85;52.96
66373;SHT30;53168;51.146;17.120;2023-06-04T06:26:33;14.97;53.04
66373;SHT30;53168;51.146;17.120;2023-06-04T06:29:04;15.11;52.72
66373;SHT30;53168;51.146;17.120;2023-06-04T06:31:34;15.21;52.11
66373;SHT30;53168;51.146;17.120;2023-06-04T06:34:04;15.34;51.96
66373;SHT30;53168;51.146;17.120;2023-06-04T06:36:34;15.46;51.66
66373;SHT30;53168;51.146;17.120;2023-06-04T06:39:04;15.56;51.41
66373;SHT30;53168;51.146;17.120;2023-06-04T06:41:33;15.70;51.00
66373;SHT30;53168;51.146;17.120;2023-06-04T06:44:04;15.86;51.19
66373;SHT30;53168;51.146;17.120;2023-06-04T06:46:34;15.99;50.87
66373;SHT30;53168;51.146;17.120;2023-06-04T06:49:04;16.08;50.72
66373;SHT30;53168;51.146;17.120;2023-06-04T06:51:33;16.20;50.14
66373;SHT30;53168;51.146;17.120;2023-06-04T06:54:03;16.28;49.70
66373;SHT30;53168;51.146;17.120;2023-06-04T06:56:32;16.32;50.17
66373;SHT30;53168;51.146;17.120;2023-06-04T06:59:02;16.45;50.24
66373;SHT30;53168;51.146;17.120;2023-06-04T07:01:32;16.59;50.27
66373;SHT30;53168;51.146;17.120;2023-06-04T07:04:02;16.68;49.70
66373;SHT30;53168;51.146;17.120;2023-06-04T07:06:36;16.74;49.86
66373;SHT30;53168;51.146;17.120;2023-06-04T07:09:06;16.89;50.02
66373;SHT30;53168;51.146;17.120;2023-06-04T07:11:39;17.04;49.27
66373;SHT30;53168;51.146;17.120;2023-06-04T07:14:31;17.15;49.10
66373;SHT30;53168;51.146;17.120;2023-06-04T07:17:07;17.20;48.93
66373;SHT30;53168;51.146;17.120;2023-06-04T07:19:40;17.30;48.76
66373;SHT30;53168;51.146;17.120;2023-06-04T07:22:47;17.42;48.36
66373;SHT30;53168;51.146;17.120;2023-06-04T07:25:23;17.55;48.08
66373;SHT30;53168;51.146;17.120;2023-06-04T07:28:10;17.66;47.88
66373;SHT30;53168;51.146;17.120;2023-06-04T07:33:40;17.84;47.14
66373;SHT30;53168;51.146;17.120;2023-06-04T07:36:13;17.95;47.31
66373;SHT30;53168;51.146;17.120;2023-06-04T07:38:43;18.13;47.30
66373;SHT30;53168;51.146;17.120;2023-06-04T07:41:12;18.32;46.99
66373;SHT30;53168;51.146;17.120;2023-06-04T07:43:44;18.50;46.87
66373;SHT30;53168;51.146;17.120;2023-06-04T07:46:13;18.65;46.61
66373;SHT30;53168;51.146;17.120;2023-06-04T07:48:46;18.77;46.26
66373;SHT30;53168;51.146;17.120;2023-06-04T07:51:16;18.89;46.11
66373;SHT30;53168;51.146;17.120;2023-06-04T07:53:47;18.98;45.73
66373;SHT30;53168;51.146;17.120;2023-06-04T07:56:17;19.05;45.61
66373;SHT30;53168;51.146;17.120;2023-06-04T07:58:48;19.11;45.21
66373;SHT30;53168;51.146;17.120;2023-06-04T08:01:18;19.20;45.36
66373;SHT30;53168;51.146;17.120;2023-06-04T08:03:47;19.24;44.66
66373;SHT30;53168;51.146;17.120;2023-06-04T08:06:17;19.26;45.08
66373;SHT30;53168;51.146;17.120;2023-06-04T08:08:47;19.39;44.44
66373;SHT30;53168;51.146;17.120;2023-06-04T08:11:18;19.49;44.58
66373;SHT30;53168;51.146;17.120;2023-06-04T08:14:02;19.67;43.88
66373;SHT30;53168;51.146;17.120;2023-06-04T08:16:51;19.74;42.69
66373;SHT30;53168;51.146;17.120;2023-06-04T08:19:26;19.70;41.76
66373;SHT30;53168;51.146;17.120;2023-06-04T08:24:44;19.83;42.09
66373;SHT30;53168;51.146;17.120;2023-06-04T08:27:18;19.90;40.68
66373;SHT30;53168;51.146;17.120;2023-06-04T08:29:51;19.99;41.33
66373;SHT30;53168;51.146;17.120;2023-06-04T08:32:22;20.14;41.13
66373;SHT30;53168;51.146;17.120;2023-06-04T08:34:54;20.31;41.24
66373;SHT30;53168;51.146;17.120;2023-06-04T08:37:26;20.49;39.85
66373;SHT30;53168;51.146;17.120;2023-06-04T08:39:57;20.63;39.98
66373;SHT30;53168;51.146;17.120;2023-06-04T08:42:31;20.70;39.33
66373;SHT30;53168;51.146;17.120;2023-06-04T08:45:24;20.80;39.64
66373;SHT30;53168;51.146;17.120;2023-06-04T08:47:57;20.92;38.98
66373;SHT30;53168;51.146;17.120;2023-06-04T08:50:33;20.96;38.83
66373;SHT30;53168;51.146;17.120;2023-06-04T08:53:06;21.02;38.34
66373;SHT30;53168;51.146;17.120;2023-06-04T08:55:41;21.09;38.43
66373;SHT30;53168;51.146;17.120;2023-06-04T08:58:14;21.21;37.64
66373;SHT30;53168;51.146;17.120;2023-06-04T09:00:46;21.24;36.14
66373;SHT30;53168;51.146;17.120;2023-06-04T09:03:16;21.26;36.55
66373;SHT30;53168;51.146;17.120;2023-06-04T09:05:51;21.37;36.58
66373;SHT30;53168;51.146;17.120;2023-06-04T09:08:37;21.46;36.42
66373;SHT30;53168;51.146;17.120;2023-06-04T09:11:22;21.60;36.36
66373;SHT30;53168;51.146;17.120;2023-06-04T09:14:01;21.83;36.20
66373;SHT30;53168;51.146;17.120;2023-06-04T09:16:44;21.97;35.77
66373;SHT30;53168;51.146;17.120;2023-06-04T09:19:16;22.09;35.85
66373;SHT30;53168;51.146;17.120;2023-06-04T09:21:51;22.19;35.21
66373;SHT30;53168;51.146;17.120;2023-06-04T09:24:38;22.18;33.78
66373;SHT30;53168;51.146;17.120;2023-06-04T09:27:13;22.09;34.43
66373;SHT30;53168;51.146;17.120;2023-06-04T09:33:10;22.00;34.47
66373;SHT30;53168;51.146;17.120;2023-06-04T09:36:49;22.09;33.67
66373;SHT30;53168;51.146;17.120;2023-06-04T09:42:54;22.28;34.01
66373;SHT30;53168;51.146;17.120;2023-06-04T10:10:59;23.13;31.53
66373;SHT30;53168;51.146;17.120;2023-06-04T10:24:35;23.68;30.36
66373;SHT30;53168;51.146;17.120;2023-06-04T10:27:09;23.79;31.42
66373;SHT30;53168;51.146;17.120;2023-06-04T10:29:51;23.96;30.59
66373;SHT30;53168;51.146;17.120;2023-06-04T10:32:30;24.08;31.45
66373;SHT30;53168;51.146;17.120;2023-06-04T10:35:07;24.25;30.64
66373;SHT30;53168;51.146;17.120;2023-06-04T10:37:46;24.30;30.67
66373;SHT30;53168;51.146;17.120;2023-06-04T10:40:33;24.29;30.49
66373;SHT30;53168;51.146;17.120;2023-06-04T10:43:19;24.38;30.52
66373;SHT30;53168;51.146;17.120;2023-06-04T10:45:53;24.47;30.52
66373;SHT30;53168;51.146;17.120;2023-06-04T11:10:43;25.11;29.29
66373;SHT30;53168;51.146;17.120;2023-06-04T11:13:24;24.97;28.43
66373;SHT30;53168;51.146;17.120;2023-06-04T11:15:58;24.84;29.38
66373;SHT30;53168;51.146;17.120;2023-06-04T11:25:35;26.04;28.74
66373;SHT30;53168;51.146;17.120;2023-06-04T11:32:25;27.02;27.62
66373;SHT30;53168;51.146;17.120;2023-06-04T12:00:53;28.88;24.78
66373;SHT30;53168;51.146;17.120;2023-06-04T12:04:47;29.00;25.06
66373;SHT30;53168;51.146;17.120;2023-06-04T12:07:21;29.06;24.76
66373;SHT30;53168;51.146;17.120;2023-06-04T12:09:52;29.06;24.40
66373;SHT30;53168;51.146;17.120;2023-06-04T12:12:23;29.08;24.54
66373;SHT30;53168;51.146;17.120;2023-06-04T12:14:59;29.23;24.68
66373;SHT30;53168;51.146;17.120;2023-06-04T12:17:29;29.48;24.78
66373;SHT30;53168;51.146;17.120;2023-06-04T12:20:05;29.43;23.78
66373;SHT30;53168;51.146;17.120;2023-06-04T12:22:46;29.17;23.50
66373;SHT30;53168;51.146;17.120;2023-06-04T12:25:25;29.16;24.17
66373;SHT30;53168;51.146;17.120;2023-06-04T12:27:57;29.30;23.95
66373;SHT30;53168;51.146;17.120;2023-06-04T12:30:36;29.29;23.78
66373;SHT30;53168;51.146;17.120;2023-06-04T12:33:06;29.46;24.17
66373;SHT30;53168;51.146;17.120;2023-06-04T12:35:36;29.54;23.41
66373;SHT30;53168;51.146;17.120;2023-06-04T13:17:49;30.94;20.87
66373;SHT30;53168;51.146;17.120;2023-06-04T13:53:52;32.82;20.14
66373;SHT30;53168;51.146;17.120;2023-06-04T13:56:26;32.77;20.22
66373;SHT30;53168;51.146;17.120;2023-06-04T13:59:00;32.91;20.52
66373;SHT30;53168;51.146;17.120;2023-06-04T14:04:26;32.89;20.00
66373;SHT30;53168;51.146;17.120;2023-06-04T14:07:00;32.66;18.89
66373;SHT30;53168;51.146;17.120;2023-06-04T14:09:34;32.47;19.23
66373;SHT30;53168;51.146;17.120;2023-06-04T14:12:10;32.60;19.45
66373;SHT30;53168;51.146;17.120;2023-06-04T14:14:44;32.64;19.65
66373;SHT30;53168;51.146;17.120;2023-06-04T14:17:19;32.71;19.96
66373;SHT30;53168;51.146;17.120;2023-06-04T14:24:36;32.91;19.66
66373;SHT30;53168;51.146;17.120;2023-06-04T14:53:48;32.61;19.09
66373;SHT30;53168;51.146;17.120;2023-06-04T15:01:08;33.04;19.44
66373;SHT30;53168;51.146;17.120;2023-06-04T15:56:42;33.58;17.62
66373;SHT30;53168;51.146;17.120;2023-06-04T15:59:25;33.29;17.39
66373;SHT30;53168;51.146;17.120;2023-06-04T16:01:57;33.15;17.69
66373;SHT30;53168;51.146;17.120;2023-06-04T16:36:06;32.08;17.59
66373;SHT30;53168;51.146;17.120;2023-06-04T16:39:08;32.23;17.29
66373;SHT30;53168;51.146;17.120;2023-06-04T16:41:49;32.06;17.11
66373;SHT30;53168;51.146;17.120;2023-06-04T17:24:20;29.56;18.31
66373;SHT30;53168;51.146;17.120;2023-06-04T17:26:55;29.32;18.53
66373;SHT30;53168;51.146;17.120;2023-06-04T17:29:33;28.79;18.89
66373;SHT30;53168;51.146;17.120;2023-06-04T17:32:07;27.88;19.44
66373;SHT30;53168;51.146;17.120;2023-06-04T17:34:48;26.94;20.04
66373;SHT30;53168;51.146;17.120;2023-06-04T17:37:22;26.15;20.45
66373;SHT30;53168;51.146;17.120;2023-06-04T17:39:56;25.57;21.11
66373;SHT30;53168;51.146;17.120;2023-06-04T17:42:31;25.01;21.31
66373;SHT30;53168;51.146;17.120;2023-06-04T17:45:11;24.57;22.00
66373;SHT30;53168;51.146;17.120;2023-06-04T17:47:48;24.15;22.31
66373;SHT30;53168;51.146;17.120;2023-06-04T17:50:24;23.82;22.58
66373;SHT30;53168;51.146;17.120;2023-06-04T18:54:50;19.59;28.99
66373;SHT30;53168;51.146;17.120;2023-06-04T18:57:30;19.46;29.63
66373;SHT30;53168;51.146;17.120;2023-06-04T19:00:10;19.31;30.11
66373;SHT30;53168;51.146;17.120;2023-06-04T19:10:34;18.81;31.50
66373;SHT30;53168;51.146;17.120;2023-06-04T19:13:14;18.70;31.55
66373;SHT30;53168;51.146;17.120;2023-06-04T19:20:21;18.44;32.51
66373;SHT30;53168;51.146;17.120;2023-06-04T19:23:55;18.33;32.74
66373;SHT30;53168;51.146;17.120;2023-06-04T19:26:54;18.23;32.97
66373;SHT30;53168;51.146;17.120;2023-06-04T19:29:33;18.13;33.16
66373;SHT30;53168;51.146;17.120;2023-06-04T19:32:32;18.06;33.47
66373;SHT30;53168;51.146;17.120;2023-06-04T19:35:24;17.99;33.46
66373;SHT30;53168;51.146;17.120;2023-06-04T19:38:03;17.90;33.75
66373;SHT30;53168;51.146;17.120;2023-06-04T19:40:41;17.82;33.83
66373;SHT30;53168;51.146;17.120;2023-06-04T19:43:26;17.75;34.10
66373;SHT30;53168;51.146;17.120;2023-06-04T19:46:08;17.70;34.21
66373;SHT30;53168;51.146;17.120;2023-06-04T19:48:54;17.64;34.17
66373;SHT30;53168;51.146;17.120;2023-06-04T19:52:02;17.55;34.36
66373;SHT30;53168;51.146;17.120;2023-06-04T19:54:47;17.45;34.46
66373;SHT30;53168;51.146;17.120;2023-06-04T19:57:44;17.36;34.64
66373;SHT30;53168;51.146;17.120;2023-06-04T20:00:33;17.26;34.94
66373;SHT30;53168;51.146;17.120;2023-06-04T20:03:51;17.16;35.10
66373;SHT30;53168;51.146;17.120;2023-06-04T20:09:25;16.99;35.50
66373;SHT30;53168;51.146;17.120;2023-06-04T20:12:03;16.92;35.59
66373;SHT30;53168;51.146;17.120;2023-06-04T20:14:46;16.82;35.80
66373;SHT30;53168;51.146;17.120;2023-06-04T20:17:30;16.74;36.10
66373;SHT30;53168;51.146;17.120;2023-06-04T20:20:12;16.64;36.07
66373;SHT30;53168;51.146;17.120;2023-06-04T20:23:20;16.54;36.29
66373;SHT30;53168;51.146;17.120;2023-06-04T20:26:08;16.44;36.54
66373;SHT30;53168;51.146;17.120;2023-06-04T20:28:50;16.36;36.57
66373;SHT30;53168;51.146;17.120;2023-06-04T20:32:00;16.27;36.73
66373;SHT30;53168;51.146;17.120;2023-06-04T20:37:50;16.14;36.98
66373;SHT30;53168;51.146;17.120;2023-06-04T20:40:25;16.07;37.18
66373;SHT30;53168;51.146;17.120;2023-06-04T20:43:00;16.01;37.29
66373;SHT30;53168;51.146;17.120;2023-06-04T20:45:36;15.95;37.61
66373;SHT30;53168;51.146;17.120;2023-06-04T20:48:10;15.85;37.67
66373;SHT30;53168;51.146;17.120;2023-06-04T20:50:48;15.76;38.14
66373;SHT30;53168;51.146;17.120;2023-06-04T20:53:28;15.71;38.65
66373;SHT30;53168;51.146;17.120;2023-06-04T20:56:03;15.67;38.92
66373;SHT30;53168;51.146;17.120;2023-06-04T20:58:38;15.63;38.93
66373;SHT30;53168;51.146;17.120;2023-06-04T21:01:13;15.59;38.91
66373;SHT30;53168;51.146;17.120;2023-06-04T21:03:47;15.55;39.14
66373;SHT30;53168;51.146;17.120;2023-06-04T21:06:21;15.53;39.14
66373;SHT30;53168;51.146;17.120;2023-06-04T21:08:55;15.48;39.10
66373;SHT30;53168;51.146;17.120;2023-06-04T21:11:41;15.43;39.12
66373;SHT30;53168;51.146;17.120;2023-06-04T21:15:00;15.37;39.28
66373;SHT30;53168;51.146;17.120;2023-06-04T21:17:42;15.32;39.35
66373;SHT30;53168;51.146;17.120;2023-06-04T21:20:30;15.26;39.56
66373;SHT30;53168;51.146;17.120;2023-06-04T21:23:09;15.23;39.81
66373;SHT30;53168;51.146;17.120;2023-06-04T21:26:06;15.23;39.86
66373;SHT30;53168;51.146;17.120;2023-06-04T21:29:43;15.19;39.88
66373;SHT30;53168;51.146;17.120;2023-06-04T21:32:32;15.14;40.11
66373;SHT30;53168;51.146;17.120;2023-06-04T21:35:22;15.10;40.27
66373;SHT30;53168;51.146;17.120;2023-06-04T21:38:03;15.06;40.35
66373;SHT30;53168;51.146;17.120;2023-06-04T21:41:00;15.00;40.66
66373;SHT30;53168;51.146;17.120;2023-06-04T21:43:37;14.97;40.66
66373;SHT30;53168;51.146;17.120;2023-06-04T21:46:21;14.91;40.69
66373;SHT30;53168;51.146;17.120;2023-06-04T21:48:59;14.84;40.82
66373;SHT30;53168;51.146;17.120;2023-06-04T21:51:42;14.75;41.00
66373;SHT30;53168;51.146;17.120;2023-06-04T21:54:28;14.68;40.95
66373;SHT30;53168;51.146;17.120;2023-06-04T21:57:02;14.61;41.18
66373;SHT30;53168;51.146;17.120;2023-06-04T21:59:39;14.56;41.25
66373;SHT30;53168;51.146;17.120;2023-06-04T22:02:22;14.49;41.47
66373;SHT30;53168;51.146;17.120;2023-06-04T22:05:01;14.41;41.61
66373;SHT30;53168;51.146;17.120;2023-06-04T22:07:36;14.33;41.66
66373;SHT30;53168;51.146;17.120;2023-06-04T22:10:15;14.25;41.84
66373;SHT30;53168;51.146;17.120;2023-06-04T22:12:52;14.19;42.03
66373;SHT30;53168;51.146;17.120;2023-06-04T22:15:48;14.10;42.29
66373;SHT30;53168;51.146;17.120;2023-06-04T22:18:22;14.05;42.47
66373;SHT30;53168;51.146;17.120;2023-06-04T22:21:00;13.97;42.63
66373;SHT30;53168;51.146;17.120;2023-06-04T22:23:34;13.89;42.71
66373;SHT30;53168;51.146;17.120;2023-06-04T22:26:08;13.84;42.93
66373;SHT30;53168;51.146;17.120;2023-06-04T22:28:54;13.79;43.01
66373;SHT30;53168;51.146;17.120;2023-06-04T22:31:31;13.74;43.10
66373;SHT30;53168;51.146;17.120;2023-06-04T22:34:08;13.71;43.30
66373;SHT30;53168;51.146;17.120;2023-06-04T22:36:42;13.67;43.47
66373;SHT30;53168;51.146;17.120;2023-06-04T22:39:18;13.64;43.58
66373;SHT30;53168;51.146;17.120;2023-06-04T22:41:54;13.61;43.72
66373;SHT30;53168;51.146;17.120;2023-06-04T22:44:27;13.55;43.76
66373;SHT30;53168;51.146;17.120;2023-06-04T22:47:01;13.51;44.03
66373;SHT30;53168;51.146;17.120;2023-06-04T22:49:35;13.49;44.22
66373;SHT30;53168;51.146;17.120;2023-06-04T22:52:30;13.48;44.30
66373;SHT30;53168;51.146;17.120;2023-06-04T22:55:37;13.49;44.47
66373;SHT30;53168;51.146;17.120;2023-06-04T22:58:15;13.51;44.68
66373;SHT30;53168;51.146;17.120;2023-06-04T23:00:51;13.52;44.76
66373;SHT30;53168;51.146;17.120;2023-06-04T23:03:26;13.52;44.75
66373;SHT30;53168;51.146;17.120;2023-06-04T23:06:09;13.51;44.78
66373;SHT30;53168;51.146;17.120;2023-06-04T23:08:50;13.48;44.86
66373;SHT30;53168;51.146;17.120;2023-06-04T23:11:27;13.44;45.11
66373;SHT30;53168;51.146;17.120;2023-06-04T23:14:01;13.40;45.28
66373;SHT30;53168;51.146;17.120;2023-06-04T23:16:35;13.38;45.32
66373;SHT30;53168;51.146;17.120;2023-06-04T23:19:30;13.35;45.42
66373;SHT30;53168;51.146;17.120;2023-06-04T23:22:05;13.31;45.38
66373;SHT30;53168;51.146;17.120;2023-06-04T23:24:42;13.28;45.50
66373;SHT30;53168;51.146;17.120;2023-06-04T23:27:18;13.24;45.56
66373;SHT30;53168;51.146;17.120;2023-06-04T23:29:53;13.20;45.67
66373;SHT30;53168;51.146;17.120;2023-06-04T23:32:27;13.15;45.86
66373;SHT30;53168;51.146;17.120;2023-06-04T23:35:04;13.12;45.91
66373;SHT30;53168;51.146;17.120;2023-06-04T23:37:47;13.10;46.08
66373;SHT30;53168;51.146;17.120;2023-06-04T23:40:21;13.09;46.21
66373;SHT30;53168;51.146;17.120;2023-06-04T23:42:57;13.08;46.38
66373;SHT30;53168;51.146;17.120;2023-06-04T23:45:45;13.07;46.80
66373;SHT30;53168;51.146;17.120;2023-06-04T23:48:22;13.09;47.17